Time;durP1;ratioP1;P1;durP2;ratioP2;P2;SDS_P1;SDS_P2;PMS_P1;PMS_P2;Temp;Humidity;BMP_temperature;BMP_pressure;BME280_temperature;BME280_humidity;BME280_pressure;Samples;Min_cycle;Max_cycle;Signal;HPM_P1;HPM_P2
2022/03/06 00:00:07;;;;;;;27.38;18.63;;;;;;;;;;4824696;29;20050;-62
2022/03/06 00:02:33;;;;;;;26.75;17.30;;;;;;;;;;4824424;29;20467;-63
2022/03/06 00:04:59;;;;;;;25.10;16.88;;;;;;;;;;4824497;29;20054;-62
2022/03/06 00:07:25;;;;;;;25.65;17.02;;;;;;;;;;4824344;29;20558;-66
2022/03/06 00:09:51;;;;;;;23.05;16.58;;;;;;;;;;4824152;29;20051;-62
2022/03/06 00:12:17;;;;;;;24.85;16.27;;;;;;;;;;4824229;29;20129;-62
2022/03/06 00:14:43;;;;;;;24.00;15.45;;;;;;;;;;4824334;29;20050;-65
2022/03/06 00:17:09;;;;;;;24.38;15.25;;;;;;;;;;4837851;29;20459;-65
2022/03/06 00:19:35;;;;;;;21.20;14.95;;;;;;;;;;4823960;29;20424;-62
2022/03/06 00:22:02;;;;;;;23.02;14.48;;;;;;;;;;4823859;29;20058;-62
2022/03/06 00:24:28;;;;;;;22.30;14.35;;;;;;;;;;4823320;29;20162;-63
2022/03/06 00:26:54;;;;;;;22.35;14.57;;;;;;;;;;4824226;29;20449;-62
2022/03/06 00:29:20;;;;;;;22.77;14.75;;;;;;;;;;4822653;29;20054;-64
2022/03/06 00:31:46;;;;;;;22.30;13.10;;;;;;;;;;4822885;29;20097;-62
2022/03/06 00:34:12;;;;;;;21.83;13.00;;;;;;;;;;4836692;29;20119;-63
2022/03/06 00:36:38;;;;;;;23.10;14.27;;;;;;;;;;4823945;29;20054;-62
2022/03/06 00:39:05;;;;;;;22.38;13.07;;;;;;;;;;4823493;29;20091;-62
2022/03/06 00:41:31;;;;;;;19.23;12.35;;;;;;;;;;4822930;29;20069;-62
2022/03/06 00:43:57;;;;;;;20.30;12.80;;;;;;;;;;4824274;29;20488;-63
2022/03/06 00:46:23;;;;;;;23.05;14.02;;;;;;;;;;4825612;29;20054;-62
2022/03/06 00:48:49;;;;;;;21.60;13.48;;;;;;;;;;4827575;29;20073;-62
2022/03/06 00:51:16;;;;;;;21.73;12.25;;;;;;;;;;4825708;29;20165;-62
2022/03/06 00:53:45;;;;;;;19.98;12.85;;;;;;;;;;4826822;29;20062;-62
2022/03/06 00:56:11;;;;;;;20.73;12.07;;;;;;;;;;4840553;29;20452;-62
2022/03/06 00:58:38;;;;;;;19.88;11.70;;;;;;;;;;4825855;29;20122;-62
2022/03/06 01:01:05;;;;;;;20.52;12.20;;;;;;;;;;4826358;29;20054;-63
2022/03/06 01:03:31;;;;;;;22.38;12.68;;;;;;;;;;4839678;29;20095;-62
2022/03/06 01:05:57;;;;;;;;;;;;;;;;;;4826321;29;20180;-65
2022/03/06 01:08:24;;;;;;;18.52;11.35;;;;;;;;;;4808388;29;20361;-66
2022/03/06 01:10:50;;;;;;;19.17;11.02;;;;;;;;;;4824919;29;20062;-63
2022/03/06 01:13:18;;;;;;;18.90;11.27;;;;;;;;;;4825645;29;20464;-63
2022/03/06 01:15:44;;;;;;;19.05;11.68;;;;;;;;;;4809832;29;20090;-63
2022/03/06 01:18:10;;;;;;;18.48;11.25;;;;;;;;;;4825831;29;20089;-63
2022/03/06 01:20:37;;;;;;;20.00;12.00;;;;;;;;;;4825084;29;20124;-63
2022/03/06 01:23:03;;;;;;;18.90;10.95;;;;;;;;;;4824867;29;20395;-62
2022/03/06 01:25:29;;;;;;;21.92;11.90;;;;;;;;;;4826178;29;20514;-62
2022/03/06 01:27:55;;;;;;;18.70;11.45;;;;;;;;;;4824908;29;20111;-62
2022/03/06 01:30:22;;;;;;;18.60;11.57;;;;;;;;;;4823905;29;20125;-62
2022/03/06 01:32:49;;;;;;;18.92;11.25;;;;;;;;;;4838442;29;20054;-62
2022/03/06 01:35:15;;;;;;;17.60;11.13;;;;;;;;;;4826297;29;20380;-63
2022/03/06 01:37:41;;;;;;;21.23;12.15;;;;;;;;;;4826833;29;20179;-63
2022/03/06 01:40:08;;;;;;;19.48;11.27;;;;;;;;;;4826111;29;20050;-63
2022/03/06 01:42:35;;;;;;;20.15;11.43;;;;;;;;;;4841056;29;20403;-63
2022/03/06 01:45:01;;;;;;;20.67;11.43;;;;;;;;;;4824610;29;20127;-62
2022/03/06 01:47:47;;;;;;;19.70;11.13;;;;;;;;;;4824323;29;20137;-61
2022/03/06 01:50:14;;;;;;;19.20;11.23;;;;;;;;;;4824498;29;20532;-62
2022/03/06 01:52:40;;;;;;;21.40;12.25;;;;;;;;;;4838656;29;20119;-61
2022/03/06 01:55:07;;;;;;;20.27;10.95;;;;;;;;;;4824257;29;20062;-62
2022/03/06 01:57:33;;;;;;;20.55;10.98;;;;;;;;;;4837858;29;20397;-61
2022/03/06 02:00:05;;;;;;;18.92;10.98;;;;;;;;;;4824623;29;20353;-61
2022/03/06 02:02:33;;;;;;;20.67;11.88;;;;;;;;;;4837586;29;20050;-62
2022/03/06 02:05:00;;;;;;;21.08;10.63;;;;;;;;;;4823292;29;20137;-61
2022/03/06 02:07:26;;;;;;;18.00;10.48;;;;;;;;;;4808492;29;20096;-63
2022/03/06 02:09:52;;;;;;;;;;;;;;;;;;4823478;29;20130;-62
2022/03/06 02:12:24;;;;;;;18.27;10.43;;;;;;;;;;4821315;29;19968;-62
2022/03/06 02:14:54;;;;;;;17.90;9.70;;;;;;;;;;4823185;29;20559;-62
2022/03/06 02:17:21;;;;;;;17.38;9.30;;;;;;;;;;4824266;29;20054;-62
2022/03/06 02:20:10;;;;;;;16.17;8.93;;;;;;;;;;4824224;29;20445;-62
2022/03/06 02:22:37;;;;;;;18.88;8.93;;;;;;;;;;4815079;29;20065;-62
2022/03/06 02:25:06;;;;;;;19.23;9.35;;;;;;;;;;4824029;29;20121;-62
2022/03/06 02:27:32;;;;;;;17.27;8.50;;;;;;;;;;4824323;29;20139;-62
2022/03/06 02:29:58;;;;;;;14.43;8.02;;;;;;;;;;4823691;29;20130;-62
2022/03/06 02:32:24;;;;;;;15.05;8.23;;;;;;;;;;4808311;29;20087;-62
2022/03/06 02:34:51;;;;;;;17.08;7.90;;;;;;;;;;4824408;29;20153;-62
2022/03/06 02:37:22;;;;;;;14.07;7.88;;;;;;;;;;4824226;29;20058;-62
2022/03/06 02:39:48;;;;;;;17.95;8.35;;;;;;;;;;4824363;29;20046;-61
2022/03/06 02:42:34;;;;;;;17.52;8.07;;;;;;;;;;4825048;29;20062;-62
2022/03/06 02:45:05;;;;;;;16.02;8.13;;;;;;;;;;4837380;29;20522;-62
2022/03/06 02:47:31;;;;;;;16.30;7.80;;;;;;;;;;4823886;29;20054;-62
2022/03/06 02:49:57;;;;;;;14.77;8.07;;;;;;;;;;4823581;29;20049;-62
2022/03/06 02:52:23;;;;;;;14.95;8.00;;;;;;;;;;4824069;29;20051;-62
2022/03/06 02:54:49;;;;;;;13.35;7.72;;;;;;;;;;4824493;29;20046;-62
2022/03/06 02:57:15;;;;;;;16.05;7.88;;;;;;;;;;4822032;29;20428;-62
2022/03/06 02:59:41;;;;;;;16.30;8.45;;;;;;;;;;4837764;29;20132;-63
2022/03/06 03:02:07;;;;;;;15.45;8.27;;;;;;;;;;4823461;29;20103;-63
2022/03/06 03:04:36;;;;;;;17.67;8.30;;;;;;;;;;4822965;29;20115;-61
2022/03/06 03:07:02;;;;;;;17.13;8.48;;;;;;;;;;4807908;29;20054;-61
2022/03/06 03:09:28;;;;;;;18.10;8.50;;;;;;;;;;4822878;29;20117;-62
2022/03/06 03:11:57;;;;;;;14.95;7.88;;;;;;;;;;4806890;29;20100;-62
2022/03/06 03:14:23;;;;;;;16.70;8.63;;;;;;;;;;4822931;29;20187;-62
2022/03/06 03:16:50;;;;;;;17.73;8.25;;;;;;;;;;4822772;29;20524;-62
2022/03/06 03:19:17;;;;;;;17.67;8.90;;;;;;;;;;4822938;29;20133;-62
2022/03/06 03:21:44;;;;;;;15.27;8.00;;;;;;;;;;4806267;29;20133;-61
2022/03/06 03:24:10;;;;;;;;;;;;;;;;;;4822905;29;20453;-62
2022/03/06 03:26:36;;;;;;;18.10;8.60;;;;;;;;;;4822561;29;19936;-61
2022/03/06 03:29:02;;;;;;;17.10;8.98;;;;;;;;;;4837043;29;20123;-62
2022/03/06 03:31:28;;;;;;;;;;;;;;;;;;4823196;29;20338;-62
2022/03/06 03:33:54;;;;;;;16.42;8.05;;;;;;;;;;4806232;29;19924;-62
2022/03/06 03:36:20;;;;;;;18.52;9.20;;;;;;;;;;4822585;29;20085;-62
2022/03/06 03:38:46;;;;;;;17.20;8.55;;;;;;;;;;4822572;29;20418;-62
2022/03/06 03:41:12;;;;;;;17.50;8.70;;;;;;;;;;4822054;29;20066;-61
2022/03/06 03:43:39;;;;;;;17.33;8.70;;;;;;;;;;4822218;29;20054;-62
2022/03/06 03:46:07;;;;;;;18.98;9.57;;;;;;;;;;4822382;29;20064;-62
2022/03/06 03:48:34;;;;;;;17.55;8.93;;;;;;;;;;4822118;29;20116;-62
2022/03/06 03:51:00;;;;;;;18.27;9.35;;;;;;;;;;4822556;29;20097;-62
2022/03/06 03:53:26;;;;;;;16.83;8.82;;;;;;;;;;4805701;29;20073;-63
2022/03/06 03:55:52;;;;;;;19.45;9.05;;;;;;;;;;4805161;29;20408;-62
2022/03/06 03:58:19;;;;;;;17.85;9.73;;;;;;;;;;4821907;29;20061;-61
2022/03/06 04:00:49;;;;;;;18.27;9.43;;;;;;;;;;4821754;29;20054;-62
2022/03/06 04:03:15;;;;;;;19.75;9.25;;;;;;;;;;4822013;29;20059;-62
2022/03/06 04:05:41;;;;;;;18.25;9.52;;;;;;;;;;4823113;29;20061;-61
2022/03/06 04:08:07;;;;;;;16.52;8.73;;;;;;;;;;4806022;29;20046;-62
2022/03/06 04:10:33;;;;;;;19.27;9.27;;;;;;;;;;4805219;29;20072;-62
2022/03/06 04:12:59;;;;;;;16.17;8.88;;;;;;;;;;4822448;29;20124;-62
2022/03/06 04:15:25;;;;;;;18.55;8.95;;;;;;;;;;4822827;29;20471;-62
2022/03/06 04:17:51;;;;;;;17.38;9.02;;;;;;;;;;4821540;29;20096;-62
2022/03/06 04:20:17;;;;;;;20.10;9.68;;;;;;;;;;4821451;29;20070;-62
2022/03/06 04:22:43;;;;;;;16.50;8.95;;;;;;;;;;4821780;29;20061;-62
2022/03/06 04:25:09;;;;;;;16.80;8.75;;;;;;;;;;4822219;29;20210;-62
2022/03/06 04:27:35;;;;;;;19.77;8.88;;;;;;;;;;4821188;29;20063;-62
2022/03/06 04:30:01;;;;;;;18.75;9.63;;;;;;;;;;4821210;29;20055;-62
2022/03/06 04:32:27;;;;;;;17.35;8.88;;;;;;;;;;4821525;29;20066;-62
2022/03/06 04:34:53;;;;;;;18.42;9.40;;;;;;;;;;4821066;29;20351;-62
2022/03/06 04:37:19;;;;;;;21.83;9.52;;;;;;;;;;4805002;29;20058;-62
2022/03/06 04:39:45;;;;;;;19.05;9.13;;;;;;;;;;4821607;29;20166;-62
2022/03/06 04:42:12;;;;;;;18.35;9.40;;;;;;;;;;4821727;29;20499;-62
2022/03/06 04:44:38;;;;;;;18.52;9.27;;;;;;;;;;4821668;29;20054;-63
2022/03/06 04:47:05;;;;;;;16.20;8.93;;;;;;;;;;4822131;29;20151;-62
2022/03/06 04:49:31;;;;;;;18.20;9.45;;;;;;;;;;4821529;29;20058;-62
2022/03/06 04:51:57;;;;;;;18.63;9.43;;;;;;;;;;4821454;29;20054;-62
2022/03/06 04:54:24;;;;;;;18.90;9.50;;;;;;;;;;4805689;29;20137;-62
2022/03/06 04:56:50;;;;;;;16.33;8.57;;;;;;;;;;4821516;29;20076;-64
2022/03/06 04:59:16;;;;;;;19.73;9.95;;;;;;;;;;4805325;29;20122;-62
2022/03/06 05:01:42;;;;;;;17.52;8.98;;;;;;;;;;4821754;29;20133;-62
2022/03/06 05:04:09;;;;;;;17.13;8.50;;;;;;;;;;4821569;29;20046;-62
2022/03/06 05:06:35;;;;;;;15.90;8.57;;;;;;;;;;4822060;29;20411;-62
2022/03/06 05:09:01;;;;;;;19.17;8.45;;;;;;;;;;4821918;29;20087;-62
2022/03/06 05:11:28;;;;;;;16.40;9.15;;;;;;;;;;4835897;29;20330;-62
2022/03/06 05:13:54;;;;;;;16.30;8.23;;;;;;;;;;4821102;29;20094;-61
2022/03/06 05:16:20;;;;;;;15.27;8.23;;;;;;;;;;4821501;29;20476;-62
2022/03/06 05:18:46;;;;;;;15.73;8.32;;;;;;;;;;4821491;29;20047;-62
2022/03/06 05:21:12;;;;;;;17.10;8.43;;;;;;;;;;4821879;29;20054;-62
2022/03/06 05:23:38;;;;;;;17.10;8.23;;;;;;;;;;4821454;29;20052;-62
2022/03/06 05:26:04;;;;;;;16.50;8.20;;;;;;;;;;4821557;29;20062;-62
2022/03/06 05:28:30;;;;;;;17.33;7.80;;;;;;;;;;4821656;29;20129;-62
2022/03/06 05:30:57;;;;;;;18.58;8.00;;;;;;;;;;4821697;29;20060;-62
2022/03/06 05:33:23;;;;;;;14.45;7.90;;;;;;;;;;4824618;29;20122;-62
2022/03/06 05:35:50;;;;;;;14.43;7.82;;;;;;;;;;4824162;29;20451;-62
2022/03/06 05:38:16;;;;;;;16.23;8.02;;;;;;;;;;4824093;29;20156;-62
2022/03/06 05:40:42;;;;;;;16.75;7.93;;;;;;;;;;4838192;29;20070;-62
2022/03/06 05:43:08;;;;;;;16.90;8.70;;;;;;;;;;4824139;29;20076;-62
2022/03/06 05:45:35;;;;;;;15.43;8.40;;;;;;;;;;4807191;29;20444;-62
2022/03/06 05:48:01;;;;;;;15.65;7.88;;;;;;;;;;4823726;29;20134;-62
2022/03/06 05:50:27;;;;;;;14.75;8.05;;;;;;;;;;4807471;29;20137;-62
2022/03/06 05:52:53;;;;;;;15.93;8.60;;;;;;;;;;4823959;29;20054;-62
2022/03/06 05:55:19;;;;;;;17.83;8.82;;;;;;;;;;4824083;29;20061;-62
2022/03/06 05:57:45;;;;;;;18.00;8.73;;;;;;;;;;4823723;29;20146;-62
2022/03/06 06:00:11;;;;;;;14.82;7.78;;;;;;;;;;4823586;29;20211;-62
2022/03/06 06:02:38;;;;;;;16.55;7.78;;;;;;;;;;4823100;29;20095;-62
2022/03/06 06:05:05;;;;;;;17.55;8.52;;;;;;;;;;4822838;29;20452;-62
2022/03/06 06:07:31;;;;;;;16.63;8.50;;;;;;;;;;4822610;29;20133;-62
2022/03/06 06:09:58;;;;;;;15.75;8.10;;;;;;;;;;4806171;29;20042;-62
2022/03/06 06:12:24;;;;;;;15.55;8.25;;;;;;;;;;4805018;29;20062;-62
2022/03/06 06:14:51;;;;;;;18.27;8.43;;;;;;;;;;4821584;29;20086;-62
2022/03/06 06:17:17;;;;;;;19.13;8.27;;;;;;;;;;4804994;29;20141;-62
2022/03/06 06:19:43;;;;;;;17.85;7.90;;;;;;;;;;4834457;29;20556;-62
2022/03/06 06:22:09;;;;;;;14.80;8.07;;;;;;;;;;4821618;29;20092;-62
2022/03/06 06:24:35;;;;;;;14.02;7.72;;;;;;;;;;4821304;29;20059;-62
2022/03/06 06:27:01;;;;;;;15.65;8.18;;;;;;;;;;4821343;29;20130;-63
2022/03/06 06:29:27;;;;;;;14.43;7.15;;;;;;;;;;4821719;29;20077;-62
2022/03/06 06:31:53;;;;;;;15.02;7.97;;;;;;;;;;4835191;29;20054;-62
2022/03/06 06:34:20;;;;;;;14.55;6.45;;;;;;;;;;4820969;29;20444;-62
2022/03/06 06:36:47;;;;;;;12.10;6.93;;;;;;;;;;4821581;29;20086;-63
2022/03/06 06:39:13;;;;;;;12.00;6.00;;;;;;;;;;4806145;29;20058;-62
2022/03/06 06:41:39;;;;;;;14.10;6.68;;;;;;;;;;4822109;29;20104;-62
2022/03/06 06:44:06;;;;;;;12.40;6.38;;;;;;;;;;4822899;29;20050;-63
2022/03/06 06:46:32;;;;;;;14.20;6.82;;;;;;;;;;4822764;29;20064;-62
2022/03/06 06:48:58;;;;;;;13.23;6.50;;;;;;;;;;4836470;29;20154;-62
2022/03/06 06:51:24;;;;;;;13.48;6.10;;;;;;;;;;4836996;29;20110;-61
2022/03/06 06:53:50;;;;;;;13.48;6.38;;;;;;;;;;4822238;29;20097;-63
2022/03/06 06:56:16;;;;;;;14.20;5.85;;;;;;;;;;4821831;29;20098;-65
2022/03/06 06:58:42;;;;;;;12.68;6.45;;;;;;;;;;4835078;29;20046;-62
2022/03/06 07:01:08;;;;;;;13.40;5.85;;;;;;;;;;4821444;29;20134;-62
2022/03/06 07:03:34;;;;;;;11.68;5.80;;;;;;;;;;4834300;29;20149;-60
2022/03/06 07:06:00;;;;;;;13.50;6.50;;;;;;;;;;4821276;29;20094;-63
2022/03/06 07:08:26;;;;;;;13.55;6.20;;;;;;;;;;4804310;29;20499;-62
2022/03/06 07:10:52;;;;;;;12.02;6.20;;;;;;;;;;4820427;29;20432;-63
2022/03/06 07:13:18;;;;;;;13.80;6.45;;;;;;;;;;4804222;29;20521;-62
2022/03/06 07:15:44;;;;;;;11.63;6.30;;;;;;;;;;4821840;29;20108;-62
2022/03/06 07:18:10;;;;;;;12.15;5.30;;;;;;;;;;4821394;29;20058;-62
2022/03/06 07:20:37;;;;;;;10.70;5.75;;;;;;;;;;4821212;29;20066;-62
2022/03/06 07:23:03;;;;;;;12.55;5.45;;;;;;;;;;4820938;29;20102;-63
2022/03/06 07:25:29;;;;;;;14.02;5.70;;;;;;;;;;4821613;29;20057;-63
2022/03/06 07:27:55;;;;;;;11.82;5.55;;;;;;;;;;4804918;29;20344;-63
2022/03/06 07:30:21;;;;;;;13.10;5.60;;;;;;;;;;4821227;29;20069;-63
2022/03/06 07:32:48;;;;;;;12.07;5.80;;;;;;;;;;4821709;29;20054;-63
2022/03/06 07:35:14;;;;;;;13.43;5.93;;;;;;;;;;4821843;29;20058;-63
2022/03/06 07:37:41;;;;;;;12.32;5.60;;;;;;;;;;4835580;29;20061;-62
2022/03/06 07:40:09;;;;;;;12.60;5.53;;;;;;;;;;4820738;29;20117;-63
2022/03/06 07:42:35;;;;;;;12.25;5.38;;;;;;;;;;4821029;29;20063;-63
2022/03/06 07:45:01;;;;;;;11.52;5.78;;;;;;;;;;4821130;29;20062;-63
2022/03/06 07:47:27;;;;;;;11.90;5.68;;;;;;;;;;4821488;29;20086;-63
2022/03/06 07:49:53;;;;;;;14.20;5.43;;;;;;;;;;4821581;29;20054;-64
2022/03/06 07:52:20;;;;;;;11.98;5.70;;;;;;;;;;4821556;29;20051;-63
2022/03/06 07:54:46;;;;;;;12.70;5.25;;;;;;;;;;4818476;29;20422;-63
2022/03/06 07:57:12;;;;;;;11.73;5.05;;;;;;;;;;4834292;29;20443;-63
2022/03/06 07:59:38;;;;;;;12.02;5.13;;;;;;;;;;4820570;29;20050;-63
2022/03/06 08:02:04;;;;;;;12.55;4.57;;;;;;;;;;4820366;29;20216;-64
2022/03/06 08:04:30;;;;;;;10.95;4.68;;;;;;;;;;4820785;29;20145;-63
2022/03/06 08:06:56;;;;;;;10.35;5.07;;;;;;;;;;4821038;29;20510;-63
2022/03/06 08:09:25;;;;;;;12.43;5.25;;;;;;;;;;4820654;29;20075;-64
2022/03/06 08:11:52;;;;;;;13.02;5.57;;;;;;;;;;4819773;29;20145;-65
2022/03/06 08:14:18;;;;;;;13.82;5.00;;;;;;;;;;4819895;29;20057;-64
2022/03/06 08:16:44;;;;;;;11.00;4.65;;;;;;;;;;4821630;29;20050;-64
2022/03/06 08:19:10;;;;;;;13.43;5.28;;;;;;;;;;4820536;29;20183;-64
2022/03/06 08:21:36;;;;;;;11.50;4.90;;;;;;;;;;4821414;29;20047;-63
2022/03/06 08:24:02;;;;;;;12.63;4.97;;;;;;;;;;4820593;29;20142;-64
2022/03/06 08:26:28;;;;;;;13.52;5.70;;;;;;;;;;4821524;29;20137;-63
2022/03/06 08:28:54;;;;;;;12.10;5.40;;;;;;;;;;4819047;29;20103;-64
2022/03/06 08:31:20;;;;;;;10.77;5.05;;;;;;;;;;4819239;29;20520;-64
2022/03/06 08:33:46;;;;;;;12.80;5.60;;;;;;;;;;4818797;29;20560;-65
2022/03/06 08:36:13;;;;;;;11.77;5.32;;;;;;;;;;4819951;29;20054;-64
2022/03/06 08:38:39;;;;;;;11.13;5.22;;;;;;;;;;4833509;29;20082;-63
2022/03/06 08:41:05;;;;;;;10.93;4.97;;;;;;;;;;4819462;29;20062;-64
2022/03/06 08:43:31;;;;;;;13.52;4.88;;;;;;;;;;4820190;29;20108;-63
2022/03/06 08:45:57;;;;;;;11.52;5.00;;;;;;;;;;4833559;29;20120;-67
2022/03/06 08:48:23;;;;;;;10.63;4.60;;;;;;;;;;4819115;29;20046;-63
2022/03/06 08:50:49;;;;;;;11.52;4.63;;;;;;;;;;4819347;29;20106;-63
2022/03/06 08:53:19;;;;;;;11.55;4.50;;;;;;;;;;4819809;29;20108;-63
2022/03/06 08:55:45;;;;;;;12.40;4.78;;;;;;;;;;4819476;29;20432;-65
2022/03/06 08:58:11;;;;;;;10.57;4.53;;;;;;;;;;4819144;29;20054;-63
2022/03/06 09:00:37;;;;;;;11.20;4.80;;;;;;;;;;4818616;29;20144;-64
2022/03/06 09:03:03;;;;;;;11.00;4.60;;;;;;;;;;4819180;29;20051;-63
2022/03/06 09:05:29;;;;;;;23.38;4.82;;;;;;;;;;4818834;29;20058;-62
2022/03/06 09:08:00;;;;;;;12.43;4.60;;;;;;;;;;4821220;29;20400;-62
2022/03/06 09:10:26;;;;;;;10.35;4.65;;;;;;;;;;4822945;29;20156;-63
2022/03/06 09:12:52;;;;;;;10.85;4.80;;;;;;;;;;4822502;29;20054;-63
2022/03/06 09:15:18;;;;;;;11.98;4.80;;;;;;;;;;4821946;29;20073;-64
2022/03/06 09:17:44;;;;;;;11.90;4.80;;;;;;;;;;4805632;29;20054;-65
2022/03/06 09:20:11;;;;;;;11.27;5.15;;;;;;;;;;4822100;29;20054;-65
2022/03/06 09:22:36;;;;;;;;;;;;;;;;;;4822268;29;20058;-63
2022/03/06 09:25:03;;;;;;;12.20;4.78;;;;;;;;;;4822113;29;20410;-64
2022/03/06 09:27:29;;;;;;;12.75;4.57;;;;;;;;;;4821848;29;20463;-62
2022/03/06 09:29:55;;;;;;;10.63;4.70;;;;;;;;;;4821448;29;20452;-63
2022/03/06 09:32:21;;;;;;;12.02;5.03;;;;;;;;;;4821513;29;20491;-63
2022/03/06 09:34:47;;;;;;;11.50;4.90;;;;;;;;;;4821916;29;20050;-64
2022/03/06 09:37:14;;;;;;;11.40;4.78;;;;;;;;;;4821674;29;20139;-63
2022/03/06 09:39:40;;;;;;;10.18;4.70;;;;;;;;;;4821279;29;20051;-63
2022/03/06 09:42:07;;;;;;;10.75;4.82;;;;;;;;;;4821743;29;20163;-63
2022/03/06 09:44:36;;;;;;;13.70;4.72;;;;;;;;;;4823299;29;20114;-63
2022/03/06 09:47:02;;;;;;;11.25;5.30;;;;;;;;;;4821626;29;20448;-62
2022/03/06 09:49:28;;;;;;;11.63;4.50;;;;;;;;;;4821886;29;20199;-62
2022/03/06 09:51:55;;;;;;;10.43;4.68;;;;;;;;;;4835404;29;20474;-62
2022/03/06 09:54:21;;;;;;;9.90;4.65;;;;;;;;;;4822232;29;20492;-64
2022/03/06 09:56:47;;;;;;;11.25;4.50;;;;;;;;;;4805453;29;20065;-63
2022/03/06 09:59:13;;;;;;;12.70;4.93;;;;;;;;;;4789694;29;20050;-67
2022/03/06 10:01:40;;;;;;;11.93;5.32;;;;;;;;;;4821582;29;20107;-62
2022/03/06 10:04:06;;;;;;;;;;;;;;;;;;4821514;29;20167;-62
2022/03/06 10:06:32;;;;;;;12.38;5.05;;;;;;;;;;4821241;29;19929;-64
2022/03/06 10:09:04;;;;;;;11.00;5.40;;;;;;;;;;4821386;29;20050;-62
2022/03/06 10:11:31;;;;;;;12.27;4.82;;;;;;;;;;4820651;29;20057;-63
2022/03/06 10:13:57;;;;;;;12.48;5.10;;;;;;;;;;4820927;29;20081;-63
2022/03/06 10:16:23;;;;;;;12.52;5.13;;;;;;;;;;4821118;29;20097;-64
2022/03/06 10:18:51;;;;;;;11.95;4.75;;;;;;;;;;4820817;29;20047;-63
2022/03/06 10:21:20;;;;;;;12.32;4.90;;;;;;;;;;4820519;29;20058;-66
2022/03/06 10:23:47;;;;;;;13.20;4.75;;;;;;;;;;4821197;29;20376;-62
2022/03/06 10:26:15;;;;;;;10.90;4.63;;;;;;;;;;4820899;29;20055;-65
2022/03/06 10:28:45;;;;;;;10.82;5.10;;;;;;;;;;4820691;29;20146;-62
2022/03/06 10:31:12;;;;;;;11.57;4.97;;;;;;;;;;4820385;29;20199;-63
2022/03/06 10:33:38;;;;;;;10.43;5.00;;;;;;;;;;4820638;29;20160;-62
2022/03/06 10:36:07;;;;;;;10.80;4.78;;;;;;;;;;4820841;29;20086;-62
2022/03/06 10:38:33;;;;;;;11.68;5.20;;;;;;;;;;4820424;29;20101;-65
2022/03/06 10:41:13;;;;;;;11.02;4.50;;;;;;;;;;4820409;29;20134;-62
2022/03/06 10:43:41;;;;;;;11.15;4.72;;;;;;;;;;4820375;29;20058;-62
2022/03/06 10:46:17;;;;;;;11.32;5.03;;;;;;;;;;4820394;29;20117;-62
2022/03/06 10:48:56;;;;;;;13.15;5.13;;;;;;;;;;4820281;29;20436;-64
2022/03/06 10:51:23;;;;;;;11.63;4.78;;;;;;;;;;4819774;29;20345;-63
2022/03/06 10:53:49;;;;;;;;;;;;;;;;;;4820379;29;20058;-63
2022/03/06 10:56:16;;;;;;;11.65;4.75;;;;;;;;;;4820231;29;19936;-64
2022/03/06 10:58:43;;;;;;;11.88;5.10;;;;;;;;;;4820609;29;20050;-62
2022/03/06 11:01:10;;;;;;;10.63;4.38;;;;;;;;;;4819967;29;20046;-63
2022/03/06 11:03:36;;;;;;;10.60;5.15;;;;;;;;;;4819860;29;20050;-62
2022/03/06 11:06:07;;;;;;;13.80;5.25;;;;;;;;;;4820283;29;20104;-63
2022/03/06 11:08:34;;;;;;;12.57;4.47;;;;;;;;;;4820057;29;20396;-62
2022/03/06 11:11:00;;;;;;;12.15;4.68;;;;;;;;;;4819749;29;20135;-62
2022/03/06 11:13:26;;;;;;;;;;;;;;;;;;4819961;29;20148;-62
2022/03/06 11:15:52;;;;;;;11.80;4.90;;;;;;;;;;4818108;29;19960;-62
2022/03/06 11:18:19;;;;;;;10.48;4.50;;;;;;;;;;4819415;29;20456;-63
2022/03/06 11:20:45;;;;;;;12.30;4.78;;;;;;;;;;4819793;29;20055;-64
2022/03/06 11:23:17;;;;;;;10.50;5.15;;;;;;;;;;4820243;29;20129;-61
2022/03/06 11:25:48;;;;;;;14.95;5.70;;;;;;;;;;4820009;29;20088;-61
2022/03/06 11:28:38;;;;;;;13.70;4.82;;;;;;;;;;4819940;29;20188;-61
2022/03/06 11:31:05;;;;;;;12.57;5.43;;;;;;;;;;4819361;29;20642;-63
2022/03/06 11:33:31;;;;;;;13.18;4.80;;;;;;;;;;4833558;29;20103;-64
2022/03/06 11:35:57;;;;;;;10.93;4.88;;;;;;;;;;4819334;29;20412;-63
2022/03/06 11:38:38;;;;;;;11.63;5.00;;;;;;;;;;4819807;29;20061;-61
2022/03/06 11:41:13;;;;;;;12.43;5.00;;;;;;;;;;4819447;29;20050;-62
2022/03/06 11:43:48;;;;;;;11.70;4.97;;;;;;;;;;4819363;29;20130;-62
2022/03/06 11:46:16;;;;;;;11.43;5.10;;;;;;;;;;4802668;29;20061;-62
2022/03/06 11:48:43;;;;;;;12.18;5.45;;;;;;;;;;4819434;29;20050;-63
2022/03/06 11:51:18;;;;;;;11.43;4.82;;;;;;;;;;4819488;29;20057;-63
2022/03/06 11:53:50;;;;;;;10.50;4.90;;;;;;;;;;4819535;29;20054;-62
2022/03/06 11:56:34;;;;;;;10.98;5.13;;;;;;;;;;4819357;29;20507;-61
2022/03/06 11:59:07;;;;;;;11.95;5.13;;;;;;;;;;4817932;29;20526;-62
2022/03/06 12:01:34;;;;;;;12.63;5.07;;;;;;;;;;4818844;29;20058;-61
2022/03/06 12:04:07;;;;;;;11.15;4.75;;;;;;;;;;4818992;29;20058;-62
2022/03/06 12:06:38;;;;;;;12.70;4.80;;;;;;;;;;4832727;29;20054;-62
2022/03/06 12:09:18;;;;;;;12.02;4.53;;;;;;;;;;4818745;29;20050;-62
2022/03/06 12:11:44;;;;;;;13.40;5.47;;;;;;;;;;4833771;29;20050;-62
2022/03/06 12:14:24;;;;;;;11.77;5.13;;;;;;;;;;4819057;29;20167;-63
2022/03/06 12:17:02;;;;;;;12.35;5.15;;;;;;;;;;4819190;29;20066;-62
2022/03/06 12:19:29;;;;;;;13.18;4.90;;;;;;;;;;4818861;29;20488;-63
2022/03/06 12:22:13;;;;;;;15.15;5.00;;;;;;;;;;4819336;29;20118;-64
2022/03/06 12:24:40;;;;;;;11.05;5.13;;;;;;;;;;4818859;29;20101;-62
2022/03/06 12:27:13;;;;;;;12.02;4.80;;;;;;;;;;4819030;29;20047;-64
2022/03/06 12:29:48;;;;;;;14.13;4.95;;;;;;;;;;4818813;29;20042;-64
2022/03/06 12:32:31;;;;;;;10.32;4.80;;;;;;;;;;4832649;29;20416;-63
2022/03/06 12:35:01;;;;;;;11.70;4.43;;;;;;;;;;4818994;29;20061;-64
2022/03/06 12:37:28;;;;;;;12.60;4.60;;;;;;;;;;4818885;29;20188;-63
2022/03/06 12:39:54;;;;;;;11.85;4.53;;;;;;;;;;4818760;29;20103;-63
2022/03/06 12:42:27;;;;;;;10.43;4.65;;;;;;;;;;4824231;29;20070;-62
2022/03/06 12:44:54;;;;;;;11.25;4.95;;;;;;;;;;4824672;29;20157;-63
2022/03/06 12:47:20;;;;;;;12.73;4.72;;;;;;;;;;4838557;29;20062;-63
2022/03/06 12:49:50;;;;;;;16.67;9.23;;;;;;;;;;4824987;29;20081;-63
2022/03/06 12:52:17;;;;;;;13.38;5.03;;;;;;;;;;4825152;29;20076;-64
2022/03/06 12:54:45;;;;;;;13.93;6.18;;;;;;;;;;4824013;29;20068;-64
2022/03/06 12:57:11;;;;;;;12.15;5.50;;;;;;;;;;4838143;29;20054;-63
2022/03/06 12:59:41;;;;;;;12.05;5.70;;;;;;;;;;4824838;29;20050;-64
2022/03/06 13:02:08;;;;;;;12.75;4.70;;;;;;;;;;4824990;29;20466;-73
2022/03/06 13:04:35;;;;;;;10.00;4.50;;;;;;;;;;4826986;29;20093;-65
2022/03/06 13:07:01;;;;;;;12.15;4.80;;;;;;;;;;4827260;29;20376;-63
2022/03/06 13:09:30;;;;;;;14.10;5.90;;;;;;;;;;4827215;29;20524;-65
2022/03/06 13:11:57;;;;;;;11.60;4.40;;;;;;;;;;4827937;29;20054;-62
2022/03/06 13:14:41;;;;;;;12.95;5.47;;;;;;;;;;4826642;29;20050;-64
2022/03/06 13:17:08;;;;;;;13.95;5.50;;;;;;;;;;4840981;29;20051;-63
2022/03/06 13:19:44;;;;;;;12.32;4.25;;;;;;;;;;4810497;29;20057;-63
2022/03/06 13:22:12;;;;;;;14.73;5.75;;;;;;;;;;4826239;29;20050;-63
2022/03/06 13:24:39;;;;;;;14.75;5.30;;;;;;;;;;4810380;29;20057;-63
2022/03/06 13:27:05;;;;;;;14.15;5.90;;;;;;;;;;4826921;29;20058;-62
2022/03/06 13:29:31;;;;;;;;;;;;;;;;;;4827511;29;20084;-64
2022/03/06 13:31:57;;;;;;;12.43;5.30;;;;;;;;;;4826325;29;19925;-64
2022/03/06 13:34:26;;;;;;;11.23;4.70;;;;;;;;;;4826410;29;20146;-64
2022/03/06 13:36:52;;;;;;;12.90;6.43;;;;;;;;;;4826401;29;20133;-63
2022/03/06 13:39:19;;;;;;;11.77;4.75;;;;;;;;;;4826694;29;20050;-64
2022/03/06 13:41:56;;;;;;;12.82;4.78;;;;;;;;;;4824416;29;20070;-61
2022/03/06 13:44:22;;;;;;;10.27;4.63;;;;;;;;;;4824818;29;20097;-62
2022/03/06 13:46:48;;;;;;;13.77;7.15;;;;;;;;;;4824212;29;20163;-62
2022/03/06 13:49:19;;;;;;;11.48;5.60;;;;;;;;;;4824222;29;20531;-63
2022/03/06 13:51:45;;;;;;;12.93;5.47;;;;;;;;;;4824229;29;20220;-63
2022/03/06 13:54:11;;;;;;;;;;;;;;;;;;4820788;29;20054;-63
2022/03/06 13:56:38;;;;;;;14.50;6.45;;;;;;;;;;4821420;29;19990;-64
2022/03/06 13:59:07;;;;;;;12.35;4.97;;;;;;;;;;4821106;29;20054;-62
2022/03/06 14:01:33;;;;;;;12.90;5.10;;;;;;;;;;4821289;29;20352;-64
2022/03/06 14:04:06;;;;;;;13.75;5.10;;;;;;;;;;4821366;29;20153;-63
2022/03/06 14:06:40;;;;;;;11.20;5.00;;;;;;;;;;4820565;29;20421;-62
2022/03/06 14:09:38;;;;;;;11.38;4.57;;;;;;;;;;4821246;29;20069;-63
2022/03/06 14:12:08;;;;;;;11.45;4.97;;;;;;;;;;4765108;29;20197;-63
2022/03/06 14:14:45;;;;;;;20.80;5.15;;;;;;;;;;4821067;29;20240;-64
2022/03/06 14:17:14;;;;;;;15.25;4.82;;;;;;;;;;4821042;29;20058;-62
2022/03/06 14:19:40;;;;;;;12.07;5.07;;;;;;;;;;4820995;29;20186;-64
2022/03/06 14:22:06;;;;;;;;;;;;;;;;;;4822247;29;20061;-63
2022/03/06 14:24:32;;;;;;;13.63;5.00;;;;;;;;;;4820921;29;19925;-63
2022/03/06 14:26:59;;;;;;;13.93;5.55;;;;;;;;;;4820787;29;20129;-63
2022/03/06 14:29:29;;;;;;;15.90;5.45;;;;;;;;;;4821173;29;20125;-63
2022/03/06 14:31:59;;;;;;;10.98;4.88;;;;;;;;;;4820691;29;20093;-62